Time;durP1;ratioP1;P1;durP2;ratioP2;P2;SDS_P1;SDS_P2;PMS_P1;PMS_P2;Temp;Humidity;BMP_temperature;BMP_pressure;BME280_temperature;BME280_humidity;BME280_pressure;Samples;Min_cycle;Max_cycle;Signal;HPM_P1;HPM_P2
2023/08/10 00:00:12;;;;;;;17.38;4.63;;;11.90;99.90;;;;;;5034870;28;20460;-65
2023/08/10 00:02:39;;;;;;;13.43;4.55;;;11.80;99.90;;;;;;5032985;28;20048;-65
2023/08/10 00:05:05;;;;;;;9.20;4.53;;;11.80;99.90;;;;;;5041396;28;20317;-65
2023/08/10 00:07:33;;;;;;;14.15;4.93;;;11.80;99.90;;;;;;5032867;28;20033;-63
2023/08/10 00:09:58;;;;;;;17.77;4.70;;;11.70;99.90;;;;;;5040851;28;20033;-64
2023/08/10 00:12:24;;;;;;;14.68;4.72;;;11.80;99.90;;;;;;5037361;28;20048;-64
2023/08/10 00:14:50;;;;;;;13.38;4.65;;;11.80;99.90;;;;;;5034134;28;20532;-65
2023/08/10 00:17:16;;;;;;;13.60;5.28;;;11.80;99.90;;;;;;5032640;28;20056;-64
2023/08/10 00:19:42;;;;;;;10.23;5.13;;;11.80;99.90;;;;;;5042429;28;20456;-65
2023/08/10 00:22:08;;;;;;;16.58;4.88;;;11.80;99.90;;;;;;5018744;28;20053;-64
2023/08/10 00:24:34;;;;;;;17.30;4.60;;;11.70;99.90;;;;;;5004771;28;20073;-64
2023/08/10 00:26:59;;;;;;;13.57;5.53;;;11.70;99.90;;;;;;5033806;28;20643;-64
2023/08/10 00:29:25;;;;;;;10.77;4.45;;;11.70;99.90;;;;;;5017807;28;20037;-64
2023/08/10 00:31:51;;;;;;;12.32;4.85;;;11.80;99.90;;;;;;5032477;28;20033;-63
2023/08/10 00:34:17;;;;;;;13.75;5.20;;;11.70;99.90;;;;;;5017168;28;20155;-64
2023/08/10 00:36:42;;;;;;;13.93;5.25;;;11.70;99.90;;;;;;5023370;28;20044;-64
2023/08/10 00:39:08;;;;;;;12.43;5.53;;;11.70;99.90;;;;;;5032219;28;20414;-64
2023/08/10 00:41:34;;;;;;;10.70;4.40;;;11.60;99.90;;;;;;5034590;28;20102;-65
2023/08/10 00:44:00;;;;;;;18.25;5.68;;;11.60;99.90;;;;;;5040206;28;20507;-64
2023/08/10 00:46:26;;;;;;;13.85;5.18;;;11.60;99.90;;;;;;5034809;28;20596;-64
2023/08/10 00:48:52;;;;;;;18.42;6.28;;;11.60;99.90;;;;;;5016618;28;20115;-64
2023/08/10 00:51:18;;;;;;;12.65;5.43;;;11.60;99.90;;;;;;5036847;28;20124;-64
2023/08/10 00:53:44;;;;;;;12.00;5.55;;;11.50;99.90;;;;;;5019581;28;20048;-65
2023/08/10 00:56:11;;;;;;;16.58;5.85;;;11.50;99.90;;;;;;5038676;28;20262;-64
2023/08/10 00:58:37;;;;;;;16.10;5.82;;;11.60;99.90;;;;;;5040729;28;20040;-64
2023/08/10 01:01:04;;;;;;;15.30;6.35;;;11.50;99.90;;;;;;5032740;28;20082;-63
2023/08/10 01:03:30;;;;;;;14.10;5.53;;;11.50;99.90;;;;;;5036493;28;20214;-65
2023/08/10 01:06:20;;;;;;;12.40;5.25;;;11.50;99.90;;;;;;5019269;28;20051;-65
2023/08/10 01:08:49;;;;;;;13.63;5.03;;;11.40;99.90;;;;;;5020740;28;20037;-64
2023/08/10 01:11:27;;;;;;;10.05;5.80;;;11.40;99.90;;;;;;5033094;28;20044;-64
2023/08/10 01:14:03;;;;;;;14.55;5.65;;;11.40;99.90;;;;;;5037798;28;20552;-64
2023/08/10 01:16:30;;;;;;;16.25;5.57;;;11.50;99.90;;;;;;5039749;28;20387;-64
2023/08/10 01:18:58;;;;;;;15.15;6.03;;;11.50;99.90;;;;;;5032875;28;20052;-64
2023/08/10 01:22:00;;;;;;;16.45;6.15;;;11.50;99.90;;;;;;5034897;28;20041;-65
2023/08/10 01:24:30;;;;;;;16.05;5.82;;;11.50;99.90;;;;;;5016798;28;20044;-65
2023/08/10 01:26:56;;;;;;;14.98;6.00;;;11.40;99.90;;;;;;5033497;28;20462;-65
2023/08/10 01:29:23;;;;;;;12.93;6.28;;;11.40;99.90;;;;;;5038137;28;20053;-64
2023/08/10 01:31:49;;;;;;;12.73;5.60;;;11.40;99.90;;;;;;5020506;28;20503;-64
2023/08/10 01:34:15;;;;;;;14.55;5.60;;;11.40;99.90;;;;;;5017231;28;20041;-65
2023/08/10 01:36:41;;;;;;;16.65;6.10;;;11.30;99.90;;;;;;5041022;28;20346;-63
2023/08/10 01:39:07;;;;;;;14.98;6.63;;;11.30;99.90;;;;;;5033409;28;20037;-65
2023/08/10 01:41:33;;;;;;;13.05;5.40;;;11.30;99.90;;;;;;5033079;28;20069;-64
2023/08/10 01:43:59;;;;;;;13.45;5.50;;;11.20;99.90;;;;;;5031014;28;20156;-64
2023/08/10 01:46:27;;;;;;;14.45;5.90;;;11.20;99.90;;;;;;5033329;28;20078;-64
2023/08/10 01:48:56;;;;;;;18.33;6.95;;;11.20;99.90;;;;;;5035608;28;20510;-65
2023/08/10 01:51:25;;;;;;;12.25;6.00;;;11.10;99.90;;;;;;5031660;28;20811;-65
2023/08/10 01:53:52;;;;;;;17.23;6.15;;;11.20;99.90;;;;;;5036669;28;20296;-65
2023/08/10 01:56:19;;;;;;;14.93;6.05;;;11.20;99.90;;;;;;5034023;28;21268;-64
2023/08/10 01:58:45;;;;;;;11.82;6.43;;;11.30;99.90;;;;;;5032478;28;20040;-64
2023/08/10 02:01:11;;;;;;;14.10;6.15;;;11.30;99.90;;;;;;5033184;28;20060;-64
2023/08/10 02:03:37;;;;;;;11.63;6.20;;;11.30;99.90;;;;;;5032502;28;20041;-64
2023/08/10 02:06:03;;;;;;;11.95;5.78;;;11.30;99.90;;;;;;5031565;28;20123;-64
2023/08/10 02:08:28;;;;;;;13.90;5.82;;;11.40;99.90;;;;;;5021095;28;20450;-64
2023/08/10 02:10:54;;;;;;;12.93;6.30;;;11.50;99.90;;;;;;5014429;28;20474;-65
2023/08/10 02:13:20;;;;;;;16.95;6.20;;;11.40;99.90;;;;;;5023732;28;20045;-66
2023/08/10 02:15:46;;;;;;;15.52;6.65;;;11.50;99.90;;;;;;5031105;28;20076;-65
2023/08/10 02:18:12;;;;;;;12.93;6.72;;;11.50;99.90;;;;;;5017882;28;20051;-65
2023/08/10 02:20:39;;;;;;;12.45;6.47;;;11.40;99.90;;;;;;5016847;28;20324;-65
2023/08/10 02:23:04;;;;;;;13.88;6.97;;;11.50;99.90;;;;;;5016817;28;20339;-66
2023/08/10 02:25:30;;;;;;;14.57;6.38;;;11.40;99.90;;;;;;5034861;28;20038;-65
2023/08/10 02:27:56;;;;;;;14.27;6.10;;;11.40;99.90;;;;;;5033206;28;20102;-65
2023/08/10 02:30:21;;;;;;;17.65;6.10;;;11.50;99.90;;;;;;5033969;28;20036;-65
2023/08/10 02:32:47;;;;;;;15.52;6.43;;;11.50;99.90;;;;;;5040564;28;20060;-65
2023/08/10 02:35:14;;;;;;;12.32;5.97;;;11.50;99.90;;;;;;5036277;28;20048;-65
2023/08/10 02:37:40;;;;;;;11.70;6.25;;;11.50;99.90;;;;;;5037441;28;20120;-64
2023/08/10 02:40:07;;;;;;;12.90;6.38;;;11.60;99.90;;;;;;5018331;28;20512;-64
2023/08/10 02:42:33;;;;;;;16.70;7.40;;;11.70;99.90;;;;;;5042915;28;20040;-64
2023/08/10 02:44:59;;;;;;;17.00;7.53;;;11.70;99.90;;;;;;5041176;28;20036;-65
2023/08/10 02:47:25;;;;;;;13.43;6.28;;;11.70;99.90;;;;;;5036047;28;20323;-64
2023/08/10 02:49:51;;;;;;;17.08;9.05;;;11.80;99.90;;;;;;5033503;28;20112;-65
2023/08/10 02:52:17;;;;;;;13.02;6.05;;;11.80;99.90;;;;;;5015008;28;20348;-64
2023/08/10 02:54:43;;;;;;;12.50;5.63;;;11.70;99.90;;;;;;5038699;28;20047;-64
2023/08/10 02:57:08;;;;;;;12.10;5.05;;;11.70;99.90;;;;;;5035536;28;20102;-64
2023/08/10 02:59:34;;;;;;;17.88;5.63;;;11.70;99.90;;;;;;5034358;28;20055;-64
2023/08/10 03:02:00;;;;;;;12.05;5.70;;;11.70;99.90;;;;;;5034603;28;20487;-64
2023/08/10 03:04:25;;;;;;;13.38;5.70;;;11.70;99.90;;;;;;5036675;28;20338;-64
2023/08/10 03:06:51;;;;;;;12.57;5.57;;;11.70;99.90;;;;;;5038974;28;20533;-64
2023/08/10 03:09:17;;;;;;;14.20;6.60;;;11.70;99.90;;;;;;5036794;28;20140;-64
2023/08/10 03:11:42;;;;;;;14.98;5.78;;;11.80;99.90;;;;;;5034792;28;20406;-64
2023/08/10 03:14:08;;;;;;;11.68;6.03;;;11.90;99.90;;;;;;5022246;28;20056;-64
2023/08/10 03:16:34;;;;;;;11.55;6.43;;;11.90;99.90;;;;;;5019783;28;20056;-65
2023/08/10 03:19:00;;;;;;;13.80;5.63;;;11.90;99.90;;;;;;5041944;28;20259;-65
2023/08/10 03:21:26;;;;;;;9.70;5.68;;;11.90;99.90;;;;;;5039794;28;20044;-65
2023/08/10 03:23:52;;;;;;;9.88;5.95;;;12.00;99.90;;;;;;5024487;28;20659;-65
2023/08/10 03:26:18;;;;;;;12.57;5.78;;;12.00;99.90;;;;;;5034752;28;20815;-65
2023/08/10 03:28:43;;;;;;;15.15;6.15;;;12.00;99.90;;;;;;5035560;28;20094;-64
2023/08/10 03:31:13;;;;;;;10.57;5.63;;;12.10;99.90;;;;;;5036098;28;20033;-64
2023/08/10 03:33:40;;;;;;;12.23;5.75;;;12.10;99.90;;;;;;5035918;28;20056;-65
2023/08/10 03:36:06;;;;;;;13.52;5.63;;;12.10;99.90;;;;;;5032726;28;20040;-65
2023/08/10 03:38:31;;;;;;;11.25;5.35;;;12.20;99.90;;;;;;5020412;28;20538;-65
2023/08/10 03:40:57;;;;;;;13.13;5.55;;;12.10;99.90;;;;;;5022150;28;20048;-65
2023/08/10 03:43:23;;;;;;;13.65;5.88;;;12.20;99.90;;;;;;5037775;28;20044;-64
2023/08/10 03:45:49;;;;;;;15.18;7.65;;;12.30;99.90;;;;;;5037270;28;20044;-64
2023/08/10 03:48:14;;;;;;;13.55;9.40;;;12.30;99.90;;;;;;5018829;28;20044;-65
2023/08/10 03:50:40;;;;;;;20.23;13.00;;;12.30;99.90;;;;;;5013709;28;20048;-64
2023/08/10 03:53:06;;;;;;;17.45;12.25;;;12.40;99.90;;;;;;5035556;28;20029;-65
2023/08/10 03:55:32;;;;;;;23.75;12.35;;;12.40;99.90;;;;;;5017709;28;20583;-65
2023/08/10 03:57:58;;;;;;;13.70;9.93;;;12.40;99.90;;;;;;5042719;28;20155;-64
2023/08/10 04:00:25;;;;;;;11.73;7.47;;;12.40;99.90;;;;;;5039152;28;20049;-65
2023/08/10 04:02:51;;;;;;;11.40;6.90;;;12.40;99.90;;;;;;5033345;28;21347;-65
2023/08/10 04:05:17;;;;;;;12.18;6.72;;;12.40;99.90;;;;;;5033262;28;20344;-65
2023/08/10 04:07:42;;;;;;;15.07;6.57;;;12.40;99.90;;;;;;5025990;28;20075;-65
2023/08/10 04:10:10;;;;;;;14.38;6.55;;;12.50;99.90;;;;;;5035512;28;20558;-65
2023/08/10 04:12:37;;;;;;;13.32;6.45;;;12.50;99.90;;;;;;5034192;28;20072;-66
2023/08/10 04:15:06;;;;;;;10.55;6.38;;;12.60;99.90;;;;;;5025486;28;20040;-65
2023/08/10 04:17:32;;;;;;;12.70;5.57;;;12.60;99.90;;;;;;5033036;28;20059;-65
2023/08/10 04:19:58;;;;;;;11.77;5.68;;;12.60;99.90;;;;;;5020717;28;20251;-65
2023/08/10 04:22:24;;;;;;;9.02;4.70;;;12.60;99.90;;;;;;5031938;28;20054;-65
2023/08/10 04:24:51;;;;;;;13.95;4.70;;;12.80;99.90;;;;;;5035517;28;20055;-65
2023/08/10 04:27:17;;;;;;;14.10;5.03;;;12.80;99.90;;;;;;5042315;28;20281;-65
2023/08/10 04:29:44;;;;;;;14.20;4.55;;;12.80;99.90;;;;;;5036670;28;20040;-65
2023/08/10 04:32:10;;;;;;;12.63;3.92;;;12.90;99.90;;;;;;5037512;28;20528;-63
2023/08/10 04:34:36;;;;;;;7.47;3.20;;;12.90;99.90;;;;;;5037424;28;20533;-65
2023/08/10 04:37:02;;;;;;;10.60;3.08;;;12.90;99.90;;;;;;5031496;28;20032;-65
2023/08/10 04:39:28;;;;;;;9.75;3.40;;;12.90;99.90;;;;;;5035169;28;20314;-63
2023/08/10 04:41:54;;;;;;;9.60;3.30;;;13.00;99.90;;;;;;5020834;28;20051;-64
2023/08/10 04:44:19;;;;;;;8.18;2.75;;;13.00;99.90;;;;;;5035764;28;20074;-63
2023/08/10 04:46:45;;;;;;;11.15;3.20;;;13.10;99.90;;;;;;5002735;28;20040;-64
2023/08/10 04:49:11;;;;;;;8.55;2.80;;;13.10;99.90;;;;;;5037050;28;20045;-65
2023/08/10 04:51:36;;;;;;;7.07;2.58;;;13.10;99.90;;;;;;5018134;28;20331;-65
2023/08/10 04:54:02;;;;;;;10.38;3.20;;;13.20;99.90;;;;;;5016125;28;20059;-64
2023/08/10 04:56:28;;;;;;;8.73;2.78;;;13.30;99.90;;;;;;5034107;28;20048;-65
2023/08/10 04:58:54;;;;;;;7.55;2.92;;;13.30;99.90;;;;;;5024647;28;20132;-64
2023/08/10 05:01:19;;;;;;;8.95;3.10;;;13.30;99.90;;;;;;5034480;28;20041;-65
2023/08/10 05:03:46;;;;;;;7.70;2.17;;;13.40;99.90;;;;;;5035744;28;20458;-65
2023/08/10 05:06:12;;;;;;;9.77;2.70;;;13.40;99.90;;;;;;5017521;28;20143;-65
2023/08/10 05:08:37;;;;;;;8.43;2.42;;;13.50;99.90;;;;;;5032721;28;20128;-65
2023/08/10 05:11:03;;;;;;;8.38;2.78;;;13.60;99.90;;;;;;5036921;28;20676;-64
2023/08/10 05:13:29;;;;;;;8.20;1.80;;;13.60;99.90;;;;;;5017349;28;20051;-66
2023/08/10 05:15:55;;;;;;;9.23;2.10;;;13.70;99.90;;;;;;5032003;28;20040;-64
2023/08/10 05:18:22;;;;;;;10.73;2.38;;;13.80;99.90;;;;;;5027197;28;20068;-64
2023/08/10 05:20:48;;;;;;;10.40;2.05;;;13.90;99.90;;;;;;5034379;28;20551;-64
2023/08/10 05:23:15;;;;;;;7.95;1.92;;;13.80;99.90;;;;;;5035261;28;20044;-63
2023/08/10 05:25:40;;;;;;;9.95;1.90;;;14.00;99.90;;;;;;5020389;28;20159;-64
2023/08/10 05:28:07;;;;;;;6.43;1.70;;;14.00;99.90;;;;;;5014962;28;20211;-65
2023/08/10 05:30:33;;;;;;;8.30;1.60;;;14.20;99.90;;;;;;5019030;28;20047;-63
2023/08/10 05:32:59;;;;;;;6.93;1.67;;;14.20;99.90;;;;;;5014863;28;20032;-65
2023/08/10 05:35:25;;;;;;;6.10;1.35;;;14.40;99.90;;;;;;5032363;28;20048;-63
2023/08/10 05:37:51;;;;;;;5.32;1.50;;;14.50;99.90;;;;;;5032426;28;20070;-64
2023/08/10 05:40:16;;;;;;;11.65;1.52;;;14.80;99.90;;;;;;5036209;28;20129;-63
2023/08/10 05:42:43;;;;;;;7.53;1.48;;;15.00;99.90;;;;;;5037453;28;20092;-64
2023/08/10 05:45:14;;;;;;;5.97;1.38;;;15.00;99.90;;;;;;5033218;28;20413;-65
2023/08/10 05:47:40;;;;;;;4.85;0.82;;;15.20;99.90;;;;;;5034159;28;20566;-64
2023/08/10 05:50:07;;;;;;;8.90;1.30;;;15.20;99.90;;;;;;5035175;28;20047;-64
2023/08/10 05:52:33;;;;;;;10.32;1.20;;;15.30;99.90;;;;;;5019892;28;20033;-64
2023/08/10 05:55:00;;;;;;;8.23;0.95;;;15.30;99.90;;;;;;5032311;28;20194;-64
2023/08/10 05:57:26;;;;;;;7.80;1.10;;;15.30;99.90;;;;;;5035161;28;20500;-65
2023/08/10 05:59:52;;;;;;;6.40;1.10;;;15.40;99.90;;;;;;5040782;28;20044;-64
2023/08/10 06:02:18;;;;;;;8.75;1.05;;;15.50;99.90;;;;;;5033902;28;20060;-64
2023/08/10 06:04:43;;;;;;;6.57;0.90;;;15.50;99.90;;;;;;5034239;28;20491;-64
2023/08/10 06:07:09;;;;;;;7.30;1.05;;;15.50;99.90;;;;;;5037601;28;20037;-67
2023/08/10 06:09:35;;;;;;;10.48;1.33;;;15.70;99.90;;;;;;5038420;28;20045;-64
2023/08/10 06:12:01;;;;;;;6.65;0.70;;;15.80;99.90;;;;;;5017921;28;20118;-65
2023/08/10 06:14:27;;;;;;;7.97;0.68;;;16.10;99.90;;;;;;5033975;28;20049;-65
2023/08/10 06:16:53;;;;;;;7.88;0.80;;;16.10;99.90;;;;;;5030710;28;20048;-64
2023/08/10 06:19:21;;;;;;;6.00;0.80;;;16.30;99.90;;;;;;5030647;28;20052;-64
2023/08/10 06:21:46;;;;;;;9.95;0.80;;;16.40;99.90;;;;;;5035569;28;20041;-64
2023/08/10 06:24:12;;;;;;;9.60;0.70;;;16.50;99.90;;;;;;5020385;28;20048;-64
2023/08/10 06:26:38;;;;;;;6.43;0.90;;;16.50;99.90;;;;;;5034490;28;20544;-64
2023/08/10 06:29:04;;;;;;;9.40;0.52;;;16.60;99.90;;;;;;5035163;28;20100;-64
2023/08/10 06:31:30;;;;;;;9.90;1.00;;;16.70;99.90;;;;;;5032204;28;20311;-64
2023/08/10 06:33:56;;;;;;;7.25;0.70;;;16.60;99.90;;;;;;5015261;28;20154;-64
2023/08/10 06:36:22;;;;;;;7.63;0.60;;;16.70;99.90;;;;;;5016894;28;20036;-64
2023/08/10 06:38:49;;;;;;;7.45;0.77;;;16.80;99.90;;;;;;5013893;28;20328;-65
2023/08/10 06:41:15;;;;;;;7.10;0.85;;;16.90;99.90;;;;;;5037552;28;20675;-63
2023/08/10 06:43:42;;;;;;;8.93;0.82;;;17.00;99.90;;;;;;5015568;28;20088;-64
2023/08/10 06:46:07;;;;;;;6.15;0.75;;;17.10;99.90;;;;;;5030265;28;20128;-64
2023/08/10 06:48:33;;;;;;;8.10;0.68;;;17.00;99.90;;;;;;5030379;28;20513;-65
2023/08/10 06:50:59;;;;;;;5.38;0.70;;;17.00;99.90;;;;;;5030036;28;20071;-64
2023/08/10 06:53:24;;;;;;;7.40;0.68;;;17.10;99.90;;;;;;5030198;28;20044;-64
2023/08/10 06:55:50;;;;;;;7.25;0.80;;;17.10;99.90;;;;;;5013580;28;20049;-64
2023/08/10 06:58:17;;;;;;;5.75;0.50;;;17.20;99.90;;;;;;5030463;28;20092;-64
2023/08/10 07:00:43;;;;;;;10.60;0.93;;;17.20;99.90;;;;;;5030079;28;20288;-64
2023/08/10 07:03:09;;;;;;;9.95;0.98;;;17.00;99.90;;;;;;4999547;28;20040;-64
2023/08/10 07:05:39;;;;;;;5.63;0.50;;;17.20;99.90;;;;;;5028494;28;20048;-65
2023/08/10 07:08:06;;;;;;;5.00;0.60;;;17.60;99.90;;;;;;5031268;28;20511;-64
2023/08/10 07:10:32;;;;;;;10.43;0.60;;;17.90;99.90;;;;;;5031344;28;20068;-65
2023/08/10 07:12:58;;;;;;;7.47;0.47;;;17.90;99.90;;;;;;5030188;28;20037;-64
2023/08/10 07:15:23;;;;;;;9.18;0.65;;;18.10;99.90;;;;;;5013318;28;20543;-63
2023/08/10 07:17:49;;;;;;;7.57;0.80;;;18.50;99.90;;;;;;5051063;28;20412;-64
2023/08/10 07:20:18;;;;;;;4.25;0.70;;;18.60;99.90;;;;;;5035674;28;20530;-63
2023/08/10 07:22:45;;;;;;;5.95;0.50;;;18.90;99.90;;;;;;5036360;28;20138;-64
2023/08/10 07:25:12;;;;;;;9.98;0.60;;;19.20;99.90;;;;;;5021433;28;20063;-64
2023/08/10 07:27:37;;;;;;;6.93;0.50;;;19.60;99.90;;;;;;5026566;28;20299;-64
2023/08/10 07:30:04;;;;;;;6.88;0.60;;;19.80;99.90;;;;;;5005462;28;20296;-64
2023/08/10 07:32:30;;;;;;;7.28;0.40;;;19.90;99.90;;;;;;5038594;28;20199;-65
2023/08/10 07:34:56;;;;;;;5.13;0.52;;;20.00;99.90;;;;;;5040494;28;20048;-64
2023/08/10 07:37:22;;;;;;;8.27;0.40;;;20.20;99.90;;;;;;5038929;28;20587;-64
2023/08/10 07:39:48;;;;;;;5.45;0.57;;;20.20;99.90;;;;;;5020652;28;20041;-64
2023/08/10 07:42:13;;;;;;;5.75;0.40;;;20.40;90.50;;;;;;5020793;28;20512;-64
2023/08/10 07:44:39;;;;;;;5.93;0.40;;;20.30;63.70;;;;;;5021981;28;20127;-64
2023/08/10 07:47:05;;;;;;;6.53;0.70;;;20.30;75.20;;;;;;5036775;28;20045;-64
2023/08/10 07:49:31;;;;;;;4.40;0.30;;;20.60;70.50;;;;;;5033550;28;20537;-65
2023/08/10 07:51:58;;;;;;;7.43;0.55;;;20.70;63.10;;;;;;5039676;28;20041;-64
2023/08/10 07:54:25;;;;;;;8.90;0.47;;;20.90;57.30;;;;;;5037215;28;20091;-64
2023/08/10 07:56:50;;;;;;;5.18;0.43;;;21.40;46.30;;;;;;5022929;28;20053;-64
2023/08/10 07:59:16;;;;;;;5.75;0.40;;;21.60;37.50;;;;;;5038297;28;20453;-65
2023/08/10 08:01:42;;;;;;;5.70;0.43;;;21.60;21.80;;;;;;5020253;28;20216;-64
2023/08/10 08:04:08;;;;;;;7.35;0.50;;;21.40;9.60;;;;;;5036480;28;20041;-65
2023/08/10 08:06:36;;;;;;;4.88;0.65;;;21.50;8.10;;;;;;5033091;28;20139;-64
2023/08/10 08:09:04;;;;;;;5.95;0.45;;;21.50;8.90;;;;;;5019100;28;20214;-64
2023/08/10 08:11:30;;;;;;;6.50;0.40;;;21.30;1.00;;;;;;5039079;28;20044;-64
2023/08/10 08:13:56;;;;;;;6.47;0.60;;;20.80;1.00;;;;;;5037130;28;20640;-63
2023/08/10 08:16:22;;;;;;;6.05;0.50;;;20.40;5.70;;;;;;5042603;28;20060;-63
2023/08/10 08:18:49;;;;;;;5.15;0.50;;;20.30;10.50;;;;;;5026062;28;21155;-65
2023/08/10 08:21:18;;;;;;;3.92;0.40;;;20.30;13.90;;;;;;5002209;28;20056;-65
2023/08/10 08:23:46;;;;;;;7.28;0.50;;;19.80;15.70;;;;;;5035095;28;20060;-65
2023/08/10 08:26:16;;;;;;;3.67;0.50;;;19.60;26.70;;;;;;5034158;28;20095;-64
2023/08/10 08:28:43;;;;;;;6.15;0.50;;;19.40;28.50;;;;;;5034819;28;20044;-64
2023/08/10 08:31:09;;;;;;;6.70;0.60;;;19.40;28.70;;;;;;5018665;28;20103;-65
2023/08/10 08:33:35;;;;;;;9.85;0.70;;;19.90;29.80;;;;;;5040884;28;20041;-65
2023/08/10 08:36:02;;;;;;;3.58;0.50;;;20.70;20.00;;;;;;5039171;28;20139;-64
2023/08/10 08:38:29;;;;;;;5.97;0.47;;;21.30;9.00;;;;;;5037669;28;20033;-61
2023/08/10 08:40:55;;;;;;;6.57;0.50;;;21.20;1.00;;;;;;5032072;28;20660;-62
2023/08/10 08:43:22;;;;;;;6.88;0.40;;;21.10;1.00;;;;;;5048987;28;20041;-62
2023/08/10 08:45:48;;;;;;;3.67;0.30;;;21.30;1.00;;;;;;5065422;28;20112;-64
2023/08/10 08:48:15;;;;;;;4.25;0.40;;;21.20;1.00;;;;;;5049780;28;20033;-62
2023/08/10 08:50:42;;;;;;;4.70;0.45;;;21.00;1.00;;;;;;5048878;28;20040;-62
2023/08/10 08:53:08;;;;;;;5.78;0.40;;;21.10;1.00;;;;;;5051119;28;20041;-63
2023/08/10 08:55:35;;;;;;;7.55;0.50;;;21.50;1.00;;;;;;5050350;28;20051;-62
2023/08/10 08:58:01;;;;;;;8.05;0.40;;;22.00;1.00;;;;;;5034762;28;20068;-62
2023/08/10 09:00:27;;;;;;;3.58;0.50;;;22.60;1.00;;;;;;5035849;28;20068;-64
2023/08/10 09:02:53;;;;;;;5.05;0.40;;;23.20;1.00;;;;;;5048417;28;20044;-62
2023/08/10 09:05:19;;;;;;;6.32;0.40;;;23.40;1.00;;;;;;5052333;28;20135;-63
2023/08/10 09:07:45;;;;;;;4.55;0.40;;;23.30;1.00;;;;;;5050737;28;20148;-62
2023/08/10 09:10:10;;;;;;;1.40;0.30;;;23.60;1.00;;;;;;5031724;28;20037;-66
2023/08/10 09:12:39;;;;;;;5.63;0.50;;;23.80;1.00;;;;;;5055158;28;20032;-65
2023/08/10 09:15:10;;;;;;;4.55;0.40;;;23.90;1.00;;;;;;5033969;28;20083;-63
2023/08/10 09:17:52;;;;;;;5.97;0.60;;;23.30;1.00;;;;;;5047283;28;20391;-64
2023/08/10 09:20:20;;;;;;;4.47;0.30;;;23.10;1.00;;;;;;5051093;28;20085;-63
2023/08/10 09:22:47;;;;;;;8.55;0.70;;;22.70;1.00;;;;;;5051874;28;20044;-63
2023/08/10 09:25:13;;;;;;;4.55;0.40;;;22.50;1.00;;;;;;5048840;28;20452;-63
2023/08/10 09:27:39;;;;;;;6.28;0.50;;;22.50;1.00;;;;;;5051830;28;20123;-63
2023/08/10 09:30:07;;;;;;;5.40;0.38;;;22.50;1.00;;;;;;5035923;28;20040;-63
2023/08/10 09:32:34;;;;;;;7.40;0.52;;;22.40;1.00;;;;;;5050807;28;20044;-64
2023/08/10 09:34:59;;;;;;;5.45;0.45;;;22.10;1.00;;;;;;5050131;28;20072;-64
2023/08/10 09:37:26;;;;;;;4.53;0.40;;;21.80;1.00;;;;;;5034330;28;20086;-64
2023/08/10 09:39:57;;;;;;;3.13;0.40;;;21.60;1.00;;;;;;5034362;28;20040;-63
2023/08/10 09:42:24;;;;;;;5.03;0.40;;;21.40;1.00;;;;;;5052281;28;20124;-63
2023/08/10 09:44:51;;;;;;;5.38;0.80;;;21.40;1.00;;;;;;5021848;28;20447;-62
2023/08/10 09:47:18;;;;;;;5.53;0.63;;;21.60;1.00;;;;;;5038034;28;20051;-64
2023/08/10 09:50:01;;;;;;;4.70;0.35;;;21.70;1.00;;;;;;5018719;28;20064;-63
2023/08/10 09:52:28;;;;;;;5.05;0.40;;;21.80;1.00;;;;;;5033556;28;20276;-65
2023/08/10 09:54:56;;;;;;;4.38;0.40;;;21.60;1.00;;;;;;5037213;28;20049;-62
2023/08/10 09:57:23;;;;;;;4.63;0.40;;;21.40;1.00;;;;;;5049896;28;20059;-63
2023/08/10 09:59:51;;;;;;;6.53;0.40;;;21.30;1.00;;;;;;5049016;28;20059;-64
2023/08/10 10:02:18;;;;;;;5.30;0.30;;;21.30;1.00;;;;;;5052846;28;20036;-62
2023/08/10 10:04:47;;;;;;;4.03;0.52;;;21.20;1.00;;;;;;5046534;28;20053;-64
2023/08/10 10:07:14;;;;;;;3.70;0.40;;;21.00;1.00;;;;;;5049088;28;20040;-63
2023/08/10 10:09:43;;;;;;;4.38;0.30;;;21.40;1.00;;;;;;5049568;28;20471;-64
2023/08/10 10:12:14;;;;;;;3.15;0.40;;;21.40;1.00;;;;;;5044965;28;20053;-63
2023/08/10 10:14:42;;;;;;;5.00;0.50;;;21.50;1.00;;;;;;5047886;28;20033;-63
2023/08/10 10:17:11;;;;;;;4.03;0.38;;;21.70;1.00;;;;;;5031848;28;20109;-62
2023/08/10 10:19:41;;;;;;;4.35;0.30;;;21.90;1.00;;;;;;5051270;28;20513;-63
2023/08/10 10:22:08;;;;;;;3.38;0.30;;;21.90;1.00;;;;;;5046743;28;20360;-63
2023/08/10 10:24:34;;;;;;;3.58;0.43;;;22.20;1.00;;;;;;5026879;28;20499;-63
2023/08/10 10:27:05;;;;;;;4.18;0.40;;;22.00;1.00;;;;;;5039872;28;20132;-62
2023/08/10 10:29:38;;;;;;;6.65;0.60;;;21.90;1.00;;;;;;5051838;28;20041;-62
2023/08/10 10:32:05;;;;;;;2.75;0.30;;;22.00;1.00;;;;;;5037252;28;20187;-63
2023/08/10 10:34:34;;;;;;;3.88;0.50;;;22.30;1.00;;;;;;5017824;28;20569;-62
2023/08/10 10:37:15;;;;;;;2.05;0.30;;;22.30;1.00;;;;;;5033922;28;20661;-63
2023/08/10 10:39:49;;;;;;;3.17;0.57;;;22.70;1.00;;;;;;5038502;28;20402;-64
2023/08/10 10:42:20;;;;;;;3.45;0.40;;;22.60;1.00;;;;;;5038465;28;20584;-64
2023/08/10 10:45:06;;;;;;;4.22;0.47;;;22.30;1.00;;;;;;5038636;28;20037;-65
2023/08/10 10:47:33;;;;;;;4.85;0.30;;;22.30;1.00;;;;;;5038437;28;20052;-63
2023/08/10 10:49:59;;;;;;;5.32;0.40;;;22.20;1.00;;;;;;5039510;28;20067;-64
2023/08/10 10:52:36;;;;;;;3.42;0.45;;;22.20;1.00;;;;;;5024728;28;20402;-64
2023/08/10 10:55:03;;;;;;;1.77;0.30;;;22.50;1.00;;;;;;5041575;28;20040;-63
2023/08/10 10:57:31;;;;;;;4.57;0.40;;;22.70;1.00;;;;;;5037794;28;20253;-64
2023/08/10 10:59:58;;;;;;;3.92;0.30;;;22.40;1.00;;;;;;5036176;28;20379;-65
2023/08/10 11:02:25;;;;;;;3.63;0.30;;;22.40;1.00;;;;;;5033722;28;20044;-65
2023/08/10 11:04:52;;;;;;;5.88;0.40;;;22.60;1.00;;;;;;5018564;28;20051;-64
2023/08/10 11:07:18;;;;;;;2.95;0.20;;;22.70;1.00;;;;;;5036008;28;20292;-65
2023/08/10 11:09:44;;;;;;;2.75;0.43;;;22.70;1.00;;;;;;5038067;28;20038;-65
2023/08/10 11:12:10;;;;;;;3.03;0.30;;;22.70;1.00;;;;;;5016863;28;20040;-65
2023/08/10 11:14:38;;;;;;;4.72;0.30;;;22.80;1.00;;;;;;5041106;28;20549;-65
2023/08/10 11:17:04;;;;;;;2.90;0.20;;;22.70;1.00;;;;;;5023108;28;20068;-66
2023/08/10 11:19:30;;;;;;;4.07;0.30;;;22.90;1.00;;;;;;5039859;28;20566;-65
2023/08/10 11:21:56;;;;;;;3.05;0.25;;;22.80;1.00;;;;;;5040942;28;20048;-65
2023/08/10 11:24:22;;;;;;;5.18;0.57;;;22.70;1.00;;;;;;5023950;28;20045;-65
2023/08/10 11:26:51;;;;;;;2.53;0.30;;;22.60;1.00;;;;;;5036124;28;20173;-65
2023/08/10 11:29:19;;;;;;;3.30;0.43;;;22.40;1.00;;;;;;5037752;28;20049;-65
2023/08/10 11:31:46;;;;;;;2.38;0.22;;;22.20;1.00;;;;;;5034618;28;20115;-66
2023/08/10 11:34:25;;;;;;;2.38;0.40;;;22.30;1.00;;;;;;5041242;28;20530;-65
2023/08/10 11:36:52;;;;;;;2.83;0.20;;;22.30;1.00;;;;;;5040365;28;20599;-66
2023/08/10 11:39:20;;;;;;;2.85;0.30;;;22.20;1.00;;;;;;5029850;28;20208;-65
2023/08/10 11:41:46;;;;;;;2.00;0.20;;;22.20;1.00;;;;;;5021651;28;20046;-64
2023/08/10 11:44:26;;;;;;;1.65;0.20;;;22.20;1.00;;;;;;5022454;28;20052;-64
2023/08/10 11:46:56;;;;;;;1.52;0.40;;;22.10;1.00;;;;;;5040446;28;20040;-65
2023/08/10 11:49:24;;;;;;;3.25;0.20;;;22.20;1.00;;;;;;5029503;28;20040;-65
2023/08/10 11:51:50;;;;;;;3.20;0.38;;;22.00;1.00;;;;;;5039832;28;20037;-65
2023/08/10 11:54:17;;;;;;;4.55;0.30;;;21.90;1.00;;;;;;5037783;28;20053;-65
2023/08/10 11:56:44;;;;;;;2.65;0.25;;;22.10;1.00;;;;;;5042133;28;20045;-65
2023/08/10 11:59:14;;;;;;;2.33;0.20;;;22.20;1.00;;;;;;5037519;28;20137;-65
2023/08/10 12:01:57;;;;;;;4.30;0.30;;;22.20;1.00;;;;;;5039865;28;20113;-65
2023/08/10 12:04:28;;;;;;;3.03;0.30;;;22.30;1.00;;;;;;5036568;28;20052;-65
2023/08/10 12:06:54;;;;;;;1.67;0.30;;;22.40;1.00;;;;;;5039267;28;20453;-64
2023/08/10 12:09:21;;;;;;;2.28;0.20;;;22.70;1.00;;;;;;5021604;28;20083;-63
2023/08/10 12:11:47;;;;;;;5.18;0.28;;;22.80;1.00;;;;;;5046269;28;20097;-66
2023/08/10 12:14:13;;;;;;;2.67;0.30;;;22.80;1.00;;;;;;5032059;28;20112;-64
2023/08/10 12:16:38;;;;;;;4.57;0.30;;;22.80;1.00;;;;;;5035444;28;20056;-64
2023/08/10 12:19:04;;;;;;;2.55;0.20;;;22.70;1.00;;;;;;5038340;28;20483;-64
2023/08/10 12:21:30;;;;;;;2.88;0.30;;;22.60;1.00;;;;;;5005546;28;20098;-66
2023/08/10 12:23:57;;;;;;;2.95;0.40;;;22.80;1.00;;;;;;5037524;28;20068;-65
2023/08/10 12:26:23;;;;;;;2.63;0.30;;;22.30;1.00;;;;;;5037787;28;20373;-63
2023/08/10 12:28:48;;;;;;;3.13;0.20;;;22.40;1.00;;;;;;5040045;28;20529;-64
2023/08/10 12:31:14;;;;;;;3.38;0.20;;;22.40;1.00;;;;;;5040074;28;20032;-63
2023/08/10 12:33:41;;;;;;;3.72;0.38;;;22.40;1.00;;;;;;5016380;28;20037;-65
2023/08/10 12:36:07;;;;;;;2.80;0.20;;;22.30;1.00;;;;;;5034838;28;20352;-65
2023/08/10 12:38:33;;;;;;;3.63;0.30;;;22.40;1.00;;;;;;5036182;28;20052;-65
2023/08/10 12:41:00;;;;;;;2.22;0.20;;;22.10;1.00;;;;;;5038398;28;20032;-65
2023/08/10 12:43:25;;;;;;;2.10;0.20;;;22.20;1.00;;;;;;5015444;28;20040;-66